sensor_id;sensor_type;location;lat;lon;timestamp;temperature;humidity
39099;DHT22;24844;52.380;7.018;2023-08-24T00:01:42;18.20;99.90
39099;DHT22;24844;52.380;7.018;2023-08-24T00:04:08;18.20;99.90
39099;DHT22;24844;52.380;7.018;2023-08-24T00:06:34;18.20;99.90
39099;DHT22;24844;52.380;7.018;2023-08-24T00:09:00;18.20;99.90
39099;DHT22;24844;52.380;7.018;2023-08-24T00:11:25;18.30;99.90
39099;DHT22;24844;52.380;7.018;2023-08-24T00:13:51;18.20;99.90
39099;DHT22;24844;52.380;7.018;2023-08-24T00:16:18;18.10;99.90
39099;DHT22;24844;52.380;7.018;2023-08-24T00:18:44;18.10;99.90
39099;DHT22;24844;52.380;7.018;2023-08-24T00:21:13;18.00;99.90
39099;DHT22;24844;52.380;7.018;2023-08-24T00:23:38;18.00;99.90
39099;DHT22;24844;52.380;7.018;2023-08-24T00:26:04;17.90;99.90
39099;DHT22;24844;52.380;7.018;2023-08-24T00:28:30;17.90;99.90
39099;DHT22;24844;52.380;7.018;2023-08-24T00:30:55;17.90;99.90
39099;DHT22;24844;52.380;7.018;2023-08-24T00:33:21;17.90;99.90
39099;DHT22;24844;52.380;7.018;2023-08-24T00:35:47;17.90;99.90
39099;DHT22;24844;52.380;7.018;2023-08-24T00:38:13;17.80;99.90
39099;DHT22;24844;52.380;7.018;2023-08-24T00:40:43;17.80;99.90
39099;DHT22;24844;52.380;7.018;2023-08-24T00:43:09;17.80;99.90
39099;DHT22;24844;52.380;7.018;2023-08-24T00:45:35;17.80;99.90
39099;DHT22;24844;52.380;7.018;2023-08-24T00:48:02;17.80;99.90
39099;DHT22;24844;52.380;7.018;2023-08-24T00:50:28;17.80;99.90
39099;DHT22;24844;52.380;7.018;2023-08-24T00:52:54;17.70;99.90
39099;DHT22;24844;52.380;7.018;2023-08-24T00:55:20;17.70;99.90
39099;DHT22;24844;52.380;7.018;2023-08-24T00:57:47;17.60;99.90
39099;DHT22;24844;52.380;7.018;2023-08-24T01:00:15;17.60;99.90
39099;DHT22;24844;52.380;7.018;2023-08-24T01:02:41;17.70;99.90
39099;DHT22;24844;52.380;7.018;2023-08-24T01:05:07;17.50;99.90
39099;DHT22;24844;52.380;7.018;2023-08-24T01:07:34;17.60;99.90
39099;DHT22;24844;52.380;7.018;2023-08-24T01:10:03;17.50;99.90
39099;DHT22;24844;52.380;7.018;2023-08-24T01:15:42;17.40;99.90
39099;DHT22;24844;52.380;7.018;2023-08-24T01:18:15;17.40;99.90
39099;DHT22;24844;52.380;7.018;2023-08-24T01:20:43;17.30;99.90
39099;DHT22;24844;52.380;7.018;2023-08-24T01:28:14;17.30;99.90
39099;DHT22;24844;52.380;7.018;2023-08-24T01:30:43;17.30;99.90
39099;DHT22;24844;52.380;7.018;2023-08-24T01:33:09;17.30;99.90
39099;DHT22;24844;52.380;7.018;2023-08-24T01:35:37;17.30;99.90
39099;DHT22;24844;52.380;7.018;2023-08-24T01:38:03;17.30;99.90
39099;DHT22;24844;52.380;7.018;2023-08-24T01:40:46;17.30;99.90
39099;DHT22;24844;52.380;7.018;2023-08-24T01:43:13;17.50;99.90
39099;DHT22;24844;52.380;7.018;2023-08-24T01:45:41;17.50;99.90
39099;DHT22;24844;52.380;7.018;2023-08-24T01:48:09;17.60;99.90
39099;DHT22;24844;52.380;7.018;2023-08-24T01:50:36;17.60;99.90
39099;DHT22;24844;52.380;7.018;2023-08-24T01:53:02;17.60;99.90
39099;DHT22;24844;52.380;7.018;2023-08-24T01:55:28;17.60;99.90
39099;DHT22;24844;52.380;7.018;2023-08-24T01:57:56;17.60;99.90
39099;DHT22;24844;52.380;7.018;2023-08-24T02:00:22;17.70;99.90
39099;DHT22;24844;52.380;7.018;2023-08-24T02:02:48;17.70;99.90
39099;DHT22;24844;52.380;7.018;2023-08-24T02:05:14;17.70;99.90
39099;DHT22;24844;52.380;7.018;2023-08-24T02:07:39;17.70;99.90
39099;DHT22;24844;52.380;7.018;2023-08-24T02:10:06;17.80;99.90
39099;DHT22;24844;52.380;7.018;2023-08-24T02:12:32;17.80;99.90
39099;DHT22;24844;52.380;7.018;2023-08-24T02:14:58;17.80;99.90
39099;DHT22;24844;52.380;7.018;2023-08-24T02:17:23;17.80;99.90
39099;DHT22;24844;52.380;7.018;2023-08-24T02:19:49;17.90;99.90
39099;DHT22;24844;52.380;7.018;2023-08-24T02:22:15;17.90;99.90
39099;DHT22;24844;52.380;7.018;2023-08-24T02:24:41;17.90;99.90
39099;DHT22;24844;52.380;7.018;2023-08-24T02:27:07;17.90;99.90
39099;DHT22;24844;52.380;7.018;2023-08-24T02:29:32;17.90;99.90
39099;DHT22;24844;52.380;7.018;2023-08-24T02:31:58;17.90;99.90
39099;DHT22;24844;52.380;7.018;2023-08-24T02:34:24;17.90;99.90
39099;DHT22;24844;52.380;7.018;2023-08-24T02:36:49;17.90;99.90
39099;DHT22;24844;52.380;7.018;2023-08-24T02:39:15;17.90;99.90
39099;DHT22;24844;52.380;7.018;2023-08-24T02:41:41;17.90;99.90
39099;DHT22;24844;52.380;7.018;2023-08-24T02:44:07;17.90;99.90
39099;DHT22;24844;52.380;7.018;2023-08-24T02:46:34;17.90;99.90
39099;DHT22;24844;52.380;7.018;2023-08-24T02:48:59;17.90;99.90
39099;DHT22;24844;52.380;7.018;2023-08-24T02:51:25;18.00;99.90
39099;DHT22;24844;52.380;7.018;2023-08-24T02:53:51;18.00;99.90
39099;DHT22;24844;52.380;7.018;2023-08-24T02:56:17;18.10;99.90
39099;DHT22;24844;52.380;7.018;2023-08-24T02:58:42;17.90;99.90
39099;DHT22;24844;52.380;7.018;2023-08-24T03:01:08;17.80;99.90
39099;DHT22;24844;52.380;7.018;2023-08-24T03:03:35;17.80;99.90
39099;DHT22;24844;52.380;7.018;2023-08-24T03:06:03;17.90;99.90
39099;DHT22;24844;52.380;7.018;2023-08-24T03:08:30;18.10;99.90
39099;DHT22;24844;52.380;7.018;2023-08-24T03:10:56;18.00;99.90
39099;DHT22;24844;52.380;7.018;2023-08-24T03:13:22;18.00;99.90
39099;DHT22;24844;52.380;7.018;2023-08-24T03:15:49;18.10;99.90
39099;DHT22;24844;52.380;7.018;2023-08-24T03:18:16;18.10;99.90
39099;DHT22;24844;52.380;7.018;2023-08-24T03:20:42;18.20;99.90
39099;DHT22;24844;52.380;7.018;2023-08-24T03:23:08;18.30;99.90
39099;DHT22;24844;52.380;7.018;2023-08-24T03:25:40;18.30;99.90
39099;DHT22;24844;52.380;7.018;2023-08-24T03:28:06;18.40;99.90
39099;DHT22;24844;52.380;7.018;2023-08-24T03:30:37;18.50;99.90
39099;DHT22;24844;52.380;7.018;2023-08-24T03:33:03;18.10;99.90
39099;DHT22;24844;52.380;7.018;2023-08-24T03:35:30;17.90;99.90
39099;DHT22;24844;52.380;7.018;2023-08-24T03:37:56;17.60;99.90
39099;DHT22;24844;52.380;7.018;2023-08-24T03:40:22;17.30;99.90
39099;DHT22;24844;52.380;7.018;2023-08-24T03:42:48;17.20;99.90
39099;DHT22;24844;52.380;7.018;2023-08-24T03:45:13;17.10;99.90
39099;DHT22;24844;52.380;7.018;2023-08-24T03:47:39;16.80;99.90
39099;DHT22;24844;52.380;7.018;2023-08-24T03:50:05;16.70;99.90
39099;DHT22;24844;52.380;7.018;2023-08-24T03:52:32;16.80;99.90
39099;DHT22;24844;52.380;7.018;2023-08-24T03:54:57;16.80;99.90
39099;DHT22;24844;52.380;7.018;2023-08-24T03:57:23;16.90;99.90
39099;DHT22;24844;52.380;7.018;2023-08-24T03:59:49;17.00;99.90
39099;DHT22;24844;52.380;7.018;2023-08-24T04:02:14;17.40;99.90
39099;DHT22;24844;52.380;7.018;2023-08-24T04:04:40;17.60;99.90
39099;DHT22;24844;52.380;7.018;2023-08-24T04:07:06;17.80;99.90
39099;DHT22;24844;52.380;7.018;2023-08-24T04:09:31;17.70;99.90
39099;DHT22;24844;52.380;7.018;2023-08-24T04:11:57;17.80;99.90
39099;DHT22;24844;52.380;7.018;2023-08-24T04:14:23;17.70;99.90
39099;DHT22;24844;52.380;7.018;2023-08-24T04:16:48;17.50;99.90
39099;DHT22;24844;52.380;7.018;2023-08-24T04:19:14;17.60;99.90
39099;DHT22;24844;52.380;7.018;2023-08-24T04:21:39;17.70;99.90
39099;DHT22;24844;52.380;7.018;2023-08-24T04:24:05;17.80;99.90
39099;DHT22;24844;52.380;7.018;2023-08-24T04:26:31;17.60;99.90
39099;DHT22;24844;52.380;7.018;2023-08-24T04:28:57;17.50;99.90
39099;DHT22;24844;52.380;7.018;2023-08-24T04:31:23;17.30;99.90
39099;DHT22;24844;52.380;7.018;2023-08-24T04:33:48;17.30;99.90
39099;DHT22;24844;52.380;7.018;2023-08-24T04:36:14;17.40;99.90
39099;DHT22;24844;52.380;7.018;2023-08-24T04:38:39;17.50;99.90
39099;DHT22;24844;52.380;7.018;2023-08-24T04:41:08;17.60;99.90
39099;DHT22;24844;52.380;7.018;2023-08-24T04:43:34;17.70;99.90
39099;DHT22;24844;52.380;7.018;2023-08-24T04:45:59;17.70;99.90
39099;DHT22;24844;52.380;7.018;2023-08-24T04:48:25;17.70;99.90
39099;DHT22;24844;52.380;7.018;2023-08-24T04:50:52;17.60;99.90
39099;DHT22;24844;52.380;7.018;2023-08-24T04:53:21;17.60;99.90
39099;DHT22;24844;52.380;7.018;2023-08-24T04:55:48;17.40;99.90
39099;DHT22;24844;52.380;7.018;2023-08-24T04:58:14;17.40;99.90
39099;DHT22;24844;52.380;7.018;2023-08-24T05:00:39;17.50;99.90
39099;DHT22;24844;52.380;7.018;2023-08-24T05:03:06;17.60;99.90
39099;DHT22;24844;52.380;7.018;2023-08-24T05:05:33;17.50;99.90
39099;DHT22;24844;52.380;7.018;2023-08-24T05:08:00;17.60;99.90
39099;DHT22;24844;52.380;7.018;2023-08-24T05:10:30;17.60;99.90
39099;DHT22;24844;52.380;7.018;2023-08-24T05:12:56;17.60;99.90
39099;DHT22;24844;52.380;7.018;2023-08-24T05:15:22;17.50;99.90
39099;DHT22;24844;52.380;7.018;2023-08-24T05:17:47;17.50;99.90
39099;DHT22;24844;52.380;7.018;2023-08-24T05:20:13;17.60;99.90
39099;DHT22;24844;52.380;7.018;2023-08-24T05:22:39;17.70;99.90
39099;DHT22;24844;52.380;7.018;2023-08-24T05:25:05;17.70;99.90
39099;DHT22;24844;52.380;7.018;2023-08-24T05:27:32;17.80;99.90
39099;DHT22;24844;52.380;7.018;2023-08-24T05:29:58;17.90;99.90
39099;DHT22;24844;52.380;7.018;2023-08-24T05:32:23;17.90;99.90
39099;DHT22;24844;52.380;7.018;2023-08-24T05:34:49;17.90;99.90
39099;DHT22;24844;52.380;7.018;2023-08-24T05:37:16;18.00;99.90
39099;DHT22;24844;52.380;7.018;2023-08-24T05:39:41;18.20;99.90
39099;DHT22;24844;52.380;7.018;2023-08-24T05:42:08;18.20;99.90
39099;DHT22;24844;52.380;7.018;2023-08-24T05:44:34;18.20;99.90
39099;DHT22;24844;52.380;7.018;2023-08-24T05:47:00;18.20;99.90
39099;DHT22;24844;52.380;7.018;2023-08-24T05:49:27;18.40;99.90
39099;DHT22;24844;52.380;7.018;2023-08-24T05:51:53;18.50;99.90
39099;DHT22;24844;52.380;7.018;2023-08-24T05:54:19;18.50;99.90
39099;DHT22;24844;52.380;7.018;2023-08-24T05:56:45;18.60;99.90
39099;DHT22;24844;52.380;7.018;2023-08-24T05:59:11;18.80;99.90
39099;DHT22;24844;52.380;7.018;2023-08-24T06:01:37;18.90;99.90
39099;DHT22;24844;52.380;7.018;2023-08-24T06:04:07;19.00;99.90
39099;DHT22;24844;52.380;7.018;2023-08-24T06:06:32;18.90;99.90
39099;DHT22;24844;52.380;7.018;2023-08-24T06:08:58;19.10;99.90
39099;DHT22;24844;52.380;7.018;2023-08-24T06:11:24;19.00;99.90
39099;DHT22;24844;52.380;7.018;2023-08-24T06:13:49;19.20;99.90
39099;DHT22;24844;52.380;7.018;2023-08-24T06:16:17;19.20;99.90
39099;DHT22;24844;52.380;7.018;2023-08-24T06:18:43;19.20;99.90
39099;DHT22;24844;52.380;7.018;2023-08-24T06:21:09;18.90;99.90
39099;DHT22;24844;52.380;7.018;2023-08-24T06:23:35;18.60;99.90
39099;DHT22;24844;52.380;7.018;2023-08-24T06:26:00;18.40;99.90
39099;DHT22;24844;52.380;7.018;2023-08-24T06:28:26;18.60;99.90
39099;DHT22;24844;52.380;7.018;2023-08-24T06:30:52;18.90;99.90
39099;DHT22;24844;52.380;7.018;2023-08-24T06:33:20;19.00;99.90
39099;DHT22;24844;52.380;7.018;2023-08-24T06:35:46;19.30;99.90
39099;DHT22;24844;52.380;7.018;2023-08-24T06:38:12;19.40;99.90
39099;DHT22;24844;52.380;7.018;2023-08-24T06:40:39;19.50;99.90
39099;DHT22;24844;52.380;7.018;2023-08-24T06:43:04;19.50;99.90
39099;DHT22;24844;52.380;7.018;2023-08-24T06:45:31;19.60;99.90
39099;DHT22;24844;52.380;7.018;2023-08-24T06:47:56;19.50;99.90
39099;DHT22;24844;52.380;7.018;2023-08-24T06:50:22;19.60;99.90
39099;DHT22;24844;52.380;7.018;2023-08-24T06:52:48;19.40;99.90
39099;DHT22;24844;52.380;7.018;2023-08-24T06:55:13;19.10;99.90
39099;DHT22;24844;52.380;7.018;2023-08-24T06:57:39;19.50;99.90
39099;DHT22;24844;52.380;7.018;2023-08-24T07:00:06;19.90;99.90
39099;DHT22;24844;52.380;7.018;2023-08-24T07:02:34;19.80;99.90
39099;DHT22;24844;52.380;7.018;2023-08-24T07:05:00;19.70;99.90
39099;DHT22;24844;52.380;7.018;2023-08-24T07:07:26;20.30;99.90
39099;DHT22;24844;52.380;7.018;2023-08-24T07:09:52;20.00;99.90
39099;DHT22;24844;52.380;7.018;2023-08-24T07:12:17;20.20;99.90
39099;DHT22;24844;52.380;7.018;2023-08-24T07:14:43;20.70;99.90
39099;DHT22;24844;52.380;7.018;2023-08-24T07:17:09;20.70;99.90
39099;DHT22;24844;52.380;7.018;2023-08-24T07:19:35;21.00;99.90
39099;DHT22;24844;52.380;7.018;2023-08-24T07:22:01;20.90;99.90
39099;DHT22;24844;52.380;7.018;2023-08-24T07:24:26;21.00;99.90
39099;DHT22;24844;52.380;7.018;2023-08-24T07:26:54;20.90;99.90
39099;DHT22;24844;52.380;7.018;2023-08-24T07:29:20;21.10;99.90
39099;DHT22;24844;52.380;7.018;2023-08-24T07:31:46;21.40;99.90
39099;DHT22;24844;52.380;7.018;2023-08-24T07:34:12;21.30;99.90
39099;DHT22;24844;52.380;7.018;2023-08-24T07:36:38;21.30;99.90
39099;DHT22;24844;52.380;7.018;2023-08-24T07:39:04;21.70;99.90
39099;DHT22;24844;52.380;7.018;2023-08-24T07:41:30;22.00;99.90
39099;DHT22;24844;52.380;7.018;2023-08-24T07:43:55;22.50;99.90
39099;DHT22;24844;52.380;7.018;2023-08-24T07:46:21;23.30;99.90
39099;DHT22;24844;52.380;7.018;2023-08-24T07:48:47;24.30;99.90
39099;DHT22;24844;52.380;7.018;2023-08-24T07:51:12;25.50;99.90
39099;DHT22;24844;52.380;7.018;2023-08-24T07:53:38;26.50;99.90
39099;DHT22;24844;52.380;7.018;2023-08-24T07:56:03;26.00;99.90
39099;DHT22;24844;52.380;7.018;2023-08-24T07:58:29;26.60;99.90
39099;DHT22;24844;52.380;7.018;2023-08-24T08:00:58;26.40;99.90
39099;DHT22;24844;52.380;7.018;2023-08-24T08:03:24;26.60;99.90
39099;DHT22;24844;52.380;7.018;2023-08-24T08:05:49;26.40;99.90
39099;DHT22;24844;52.380;7.018;2023-08-24T08:08:16;26.60;99.90
39099;DHT22;24844;52.380;7.018;2023-08-24T08:10:42;26.40;99.90
39099;DHT22;24844;52.380;7.018;2023-08-24T08:13:08;26.40;99.90
39099;DHT22;24844;52.380;7.018;2023-08-24T08:15:36;27.10;99.90
39099;DHT22;24844;52.380;7.018;2023-08-24T08:18:04;28.30;96.20
39099;DHT22;24844;52.380;7.018;2023-08-24T08:20:30;27.50;97.20
39099;DHT22;24844;52.380;7.018;2023-08-24T08:22:55;27.60;97.20
39099;DHT22;24844;52.380;7.018;2023-08-24T08:25:21;28.20;95.70
39099;DHT22;24844;52.380;7.018;2023-08-24T08:27:49;27.90;96.30
39099;DHT22;24844;52.380;7.018;2023-08-24T08:30:15;27.90;96.60
39099;DHT22;24844;52.380;7.018;2023-08-24T08:32:45;28.10;96.50
39099;DHT22;24844;52.380;7.018;2023-08-24T08:35:11;28.00;96.00
39099;DHT22;24844;52.380;7.018;2023-08-24T08:37:36;28.60;94.20
39099;DHT22;24844;52.380;7.018;2023-08-24T08:40:08;28.50;95.20
39099;DHT22;24844;52.380;7.018;2023-08-24T08:42:35;30.20;93.40
39099;DHT22;24844;52.380;7.018;2023-08-24T08:45:08;30.70;91.60
39099;DHT22;24844;52.380;7.018;2023-08-24T08:47:34;30.60;91.30
39099;DHT22;24844;52.380;7.018;2023-08-24T08:50:02;30.40;90.90
39099;DHT22;24844;52.380;7.018;2023-08-24T08:52:29;30.50;90.30
39099;DHT22;24844;52.380;7.018;2023-08-24T08:54:54;29.60;90.70
39099;DHT22;24844;52.380;7.018;2023-08-24T08:57:23;29.20;91.70
39099;DHT22;24844;52.380;7.018;2023-08-24T08:59:51;29.50;91.20
39099;DHT22;24844;52.380;7.018;2023-08-24T09:02:19;29.60;91.50
39099;DHT22;24844;52.380;7.018;2023-08-24T09:04:47;29.40;91.30
39099;DHT22;24844;52.380;7.018;2023-08-24T09:07:14;29.90;91.00
39099;DHT22;24844;52.380;7.018;2023-08-24T09:09:39;29.20;91.80
39099;DHT22;24844;52.380;7.018;2023-08-24T09:12:06;29.20;92.50
39099;DHT22;24844;52.380;7.018;2023-08-24T09:14:33;29.10;91.30
39099;DHT22;24844;52.380;7.018;2023-08-24T09:16:58;29.10;91.20
39099;DHT22;24844;52.380;7.018;2023-08-24T09:19:34;29.20;91.00
39099;DHT22;24844;52.380;7.018;2023-08-24T09:22:04;29.50;90.00
39099;DHT22;24844;52.380;7.018;2023-08-24T09:24:34;29.30;89.50
39099;DHT22;24844;52.380;7.018;2023-08-24T09:27:25;29.30;90.00
39099;DHT22;24844;52.380;7.018;2023-08-24T09:29:50;29.90;89.50
39099;DHT22;24844;52.380;7.018;2023-08-24T09:32:24;30.40;88.70
39099;DHT22;24844;52.380;7.018;2023-08-24T09:34:50;30.30;88.00
39099;DHT22;24844;52.380;7.018;2023-08-24T09:37:16;29.30;87.50
39099;DHT22;24844;52.380;7.018;2023-08-24T09:39:43;30.10;89.30
39099;DHT22;24844;52.380;7.018;2023-08-24T09:42:09;30.20;87.90
39099;DHT22;24844;52.380;7.018;2023-08-24T09:44:35;31.10;86.90
39099;DHT22;24844;52.380;7.018;2023-08-24T09:47:01;31.80;84.30
39099;DHT22;24844;52.380;7.018;2023-08-24T09:49:28;30.80;84.70
39099;DHT22;24844;52.380;7.018;2023-08-24T09:51:57;31.80;82.10
39099;DHT22;24844;52.380;7.018;2023-08-24T09:54:27;30.20;82.40
39099;DHT22;24844;52.380;7.018;2023-08-24T09:56:55;30.60;83.20
39099;DHT22;24844;52.380;7.018;2023-08-24T09:59:26;30.50;85.00
39099;DHT22;24844;52.380;7.018;2023-08-24T10:01:54;31.00;83.20
39099;DHT22;24844;52.380;7.018;2023-08-24T10:04:24;30.40;85.70
39099;DHT22;24844;52.380;7.018;2023-08-24T10:06:52;29.80;86.10
39099;DHT22;24844;52.380;7.018;2023-08-24T10:09:30;30.50;87.10
39099;DHT22;24844;52.380;7.018;2023-08-24T10:12:01;29.90;86.60
39099;DHT22;24844;52.380;7.018;2023-08-24T10:14:32;31.50;83.10
39099;DHT22;24844;52.380;7.018;2023-08-24T10:17:01;31.40;82.00
39099;DHT22;24844;52.380;7.018;2023-08-24T10:19:27;31.90;81.70
39099;DHT22;24844;52.380;7.018;2023-08-24T10:21:53;32.30;79.70
39099;DHT22;24844;52.380;7.018;2023-08-24T10:24:22;32.90;78.90
39099;DHT22;24844;52.380;7.018;2023-08-24T10:26:48;32.60;77.90
39099;DHT22;24844;52.380;7.018;2023-08-24T10:29:16;32.90;76.10
39099;DHT22;24844;52.380;7.018;2023-08-24T10:31:43;31.80;78.40
39099;DHT22;24844;52.380;7.018;2023-08-24T10:34:09;31.20;79.40
39099;DHT22;24844;52.380;7.018;2023-08-24T10:36:41;31.60;79.10
39099;DHT22;24844;52.380;7.018;2023-08-24T10:39:07;31.70;79.00
39099;DHT22;24844;52.380;7.018;2023-08-24T10:41:50;32.30;77.30
39099;DHT22;24844;52.380;7.018;2023-08-24T10:44:36;31.80;77.50
39099;DHT22;24844;52.380;7.018;2023-08-24T10:47:06;32.40;78.20
39099;DHT22;24844;52.380;7.018;2023-08-24T10:49:32;33.30;76.40
39099;DHT22;24844;52.380;7.018;2023-08-24T10:52:19;34.00;75.30
39099;DHT22;24844;52.380;7.018;2023-08-24T10:54:46;34.70;72.70
39099;DHT22;24844;52.380;7.018;2023-08-24T10:57:24;33.20;74.10
39099;DHT22;24844;52.380;7.018;2023-08-24T11:00:06;31.70;75.80
39099;DHT22;24844;52.380;7.018;2023-08-24T11:07:57;29.90;79.80
39099;DHT22;24844;52.380;7.018;2023-08-24T11:13:14;29.50;82.20
39099;DHT22;24844;52.380;7.018;2023-08-24T11:15:44;29.70;81.90
39099;DHT22;24844;52.380;7.018;2023-08-24T11:18:30;29.00;83.00
39099;DHT22;24844;52.380;7.018;2023-08-24T11:21:00;28.70;84.30
39099;DHT22;24844;52.380;7.018;2023-08-24T11:23:28;28.60;84.60
39099;DHT22;24844;52.380;7.018;2023-08-24T11:25:54;28.60;85.20
39099;DHT22;24844;52.380;7.018;2023-08-24T11:28:23;28.60;85.10
39099;DHT22;24844;52.380;7.018;2023-08-24T11:30:49;28.20;86.20
39099;DHT22;24844;52.380;7.018;2023-08-24T11:33:17;28.10;87.50
39099;DHT22;24844;52.380;7.018;2023-08-24T11:35:44;28.60;88.00
39099;DHT22;24844;52.380;7.018;2023-08-24T11:38:11;28.70;86.20
39099;DHT22;24844;52.380;7.018;2023-08-24T11:40:37;28.60;87.00
39099;DHT22;24844;52.380;7.018;2023-08-24T11:43:03;28.40;86.90
39099;DHT22;24844;52.380;7.018;2023-08-24T11:45:31;28.30;89.80
39099;DHT22;24844;52.380;7.018;2023-08-24T11:47:59;28.50;89.10
39099;DHT22;24844;52.380;7.018;2023-08-24T11:50:25;28.90;88.70
39099;DHT22;24844;52.380;7.018;2023-08-24T11:52:53;28.70;87.90
39099;DHT22;24844;52.380;7.018;2023-08-24T11:55:19;29.10;88.10
39099;DHT22;24844;52.380;7.018;2023-08-24T11:57:46;29.40;87.20
39099;DHT22;24844;52.380;7.018;2023-08-24T12:00:12;29.30;88.10
39099;DHT22;24844;52.380;7.018;2023-08-24T12:02:42;29.60;87.30
39099;DHT22;24844;52.380;7.018;2023-08-24T12:05:23;29.00;87.90
39099;DHT22;24844;52.380;7.018;2023-08-24T12:07:50;29.10;89.10
39099;DHT22;24844;52.380;7.018;2023-08-24T12:10:16;29.00;87.50
39099;DHT22;24844;52.380;7.018;2023-08-24T12:12:42;29.10;87.20
39099;DHT22;24844;52.380;7.018;2023-08-24T12:15:18;29.40;87.50
39099;DHT22;24844;52.380;7.018;2023-08-24T12:17:45;30.00;86.20
39099;DHT22;24844;52.380;7.018;2023-08-24T12:20:19;30.00;86.30
39099;DHT22;24844;52.380;7.018;2023-08-24T12:22:52;30.10;85.10
39099;DHT22;24844;52.380;7.018;2023-08-24T12:25:21;29.90;85.50
39099;DHT22;24844;52.380;7.018;2023-08-24T12:27:47;29.50;85.90
39099;DHT22;24844;52.380;7.018;2023-08-24T12:30:13;29.50;85.50
39099;DHT22;24844;52.380;7.018;2023-08-24T12:32:57;29.90;86.40
39099;DHT22;24844;52.380;7.018;2023-08-24T12:35:22;30.00;83.20
39099;DHT22;24844;52.380;7.018;2023-08-24T12:37:48;29.50;85.40
39099;DHT22;24844;52.380;7.018;2023-08-24T12:40:13;30.20;84.70
39099;DHT22;24844;52.380;7.018;2023-08-24T12:42:39;29.30;85.00
39099;DHT22;24844;52.380;7.018;2023-08-24T12:45:05;29.10;85.30
39099;DHT22;24844;52.380;7.018;2023-08-24T12:47:31;28.60;85.30
39099;DHT22;24844;52.380;7.018;2023-08-24T12:49:57;28.90;87.00
39099;DHT22;24844;52.380;7.018;2023-08-24T12:52:22;29.10;86.00
39099;DHT22;24844;52.380;7.018;2023-08-24T12:54:50;28.70;87.10
39099;DHT22;24844;52.380;7.018;2023-08-24T12:57:17;28.70;87.10
39099;DHT22;24844;52.380;7.018;2023-08-24T12:59:42;28.80;86.80
39099;DHT22;24844;52.380;7.018;2023-08-24T13:02:08;28.60;86.60
39099;DHT22;24844;52.380;7.018;2023-08-24T13:04:34;28.40;87.80
39099;DHT22;24844;52.380;7.018;2023-08-24T13:06:59;28.50;88.30
39099;DHT22;24844;52.380;7.018;2023-08-24T13:09:25;28.50;87.60
39099;DHT22;24844;52.380;7.018;2023-08-24T13:11:51;28.50;88.50
39099;DHT22;24844;52.380;7.018;2023-08-24T13:14:17;28.20;89.50
39099;DHT22;24844;52.380;7.018;2023-08-24T13:16:42;28.20;89.60
39099;DHT22;24844;52.380;7.018;2023-08-24T13:19:08;28.40;90.10
39099;DHT22;24844;52.380;7.018;2023-08-24T13:21:33;28.30;89.80
39099;DHT22;24844;52.380;7.018;2023-08-24T13:23:59;28.00;90.60
39099;DHT22;24844;52.380;7.018;2023-08-24T13:26:25;28.20;90.60
39099;DHT22;24844;52.380;7.018;2023-08-24T13:28:51;28.30;89.50
39099;DHT22;24844;52.380;7.018;2023-08-24T13:31:18;28.20;88.00
39099;DHT22;24844;52.380;7.018;2023-08-24T13:33:45;28.30;89.10
39099;DHT22;24844;52.380;7.018;2023-08-24T13:36:11;28.30;90.10
39099;DHT22;24844;52.380;7.018;2023-08-24T13:38:36;28.20;87.50
39099;DHT22;24844;52.380;7.018;2023-08-24T13:41:02;27.80;88.20
39099;DHT22;24844;52.380;7.018;2023-08-24T13:43:29;27.80;89.60
39099;DHT22;24844;52.380;7.018;2023-08-24T13:45:54;27.70;90.00
39099;DHT22;24844;52.380;7.018;2023-08-24T13:48:20;27.50;90.60
39099;DHT22;24844;52.380;7.018;2023-08-24T13:50:50;27.60;90.90
39099;DHT22;24844;52.380;7.018;2023-08-24T13:53:17;27.70;91.20
39099;DHT22;24844;52.380;7.018;2023-08-24T13:55:43;27.70;91.30
39099;DHT22;24844;52.380;7.018;2023-08-24T13:58:08;27.50;91.70
39099;DHT22;24844;52.380;7.018;2023-08-24T14:00:34;27.30;91.80
39099;DHT22;24844;52.380;7.018;2023-08-24T14:03:03;27.10;92.40
39099;DHT22;24844;52.380;7.018;2023-08-24T14:05:29;27.30;92.30
39099;DHT22;24844;52.380;7.018;2023-08-24T14:07:55;27.40;92.10
39099;DHT22;24844;52.380;7.018;2023-08-24T14:10:21;27.30;92.60
39099;DHT22;24844;52.380;7.018;2023-08-24T14:12:46;27.40;92.40
39099;DHT22;24844;52.380;7.018;2023-08-24T14:15:12;27.30;92.60
39099;DHT22;24844;52.380;7.018;2023-08-24T14:17:39;27.10;93.60
39099;DHT22;24844;52.380;7.018;2023-08-24T14:20:05;26.90;93.90
39099;DHT22;24844;52.380;7.018;2023-08-24T14:22:31;27.00;94.50
39099;DHT22;24844;52.380;7.018;2023-08-24T14:24:56;26.90;95.10
39099;DHT22;24844;52.380;7.018;2023-08-24T14:27:22;27.00;95.40
39099;DHT22;24844;52.380;7.018;2023-08-24T14:29:47;26.90;95.70
39099;DHT22;24844;52.380;7.018;2023-08-24T14:32:13;26.80;95.80
39099;DHT22;24844;52.380;7.018;2023-08-24T14:34:39;26.80;96.50
39099;DHT22;24844;52.380;7.018;2023-08-24T14:37:05;26.80;97.30
39099;DHT22;24844;52.380;7.018;2023-08-24T14:39:31;26.80;98.10
39099;DHT22;24844;52.380;7.018;2023-08-24T14:41:56;26.80;98.70
39099;DHT22;24844;52.380;7.018;2023-08-24T14:44:22;26.60;99.40
39099;DHT22;24844;52.380;7.018;2023-08-24T14:46:48;26.60;99.90
39099;DHT22;24844;52.380;7.018;2023-08-24T14:49:13;26.80;99.40
39099;DHT22;24844;52.380;7.018;2023-08-24T14:51:44;26.80;99.60
39099;DHT22;24844;52.380;7.018;2023-08-24T14:54:10;26.70;99.80
39099;DHT22;24844;52.380;7.018;2023-08-24T14:56:38;26.60;99.90
39099;DHT22;24844;52.380;7.018;2023-08-24T14:59:04;26.70;99.90
39099;DHT22;24844;52.380;7.018;2023-08-24T15:01:29;26.60;99.90
39099;DHT22;24844;52.380;7.018;2023-08-24T15:03:56;26.30;99.90
39099;DHT22;24844;52.380;7.018;2023-08-24T15:06:23;26.30;99.90
39099;DHT22;24844;52.380;7.018;2023-08-24T15:08:49;26.40;99.90
39099;DHT22;24844;52.380;7.018;2023-08-24T15:11:17;26.70;99.90
39099;DHT22;24844;52.380;7.018;2023-08-24T15:13:43;26.50;99.90
39099;DHT22;24844;52.380;7.018;2023-08-24T15:16:09;26.30;99.90
39099;DHT22;24844;52.380;7.018;2023-08-24T15:18:35;26.30;99.90
39099;DHT22;24844;52.380;7.018;2023-08-24T15:21:01;26.00;99.90
39099;DHT22;24844;52.380;7.018;2023-08-24T15:23:28;26.00;99.90
39099;DHT22;24844;52.380;7.018;2023-08-24T15:25:56;26.20;99.90
39099;DHT22;24844;52.380;7.018;2023-08-24T15:28:22;26.00;99.90
39099;DHT22;24844;52.380;7.018;2023-08-24T15:30:48;25.90;99.90
39099;DHT22;24844;52.380;7.018;2023-08-24T15:33:14;26.00;99.90
39099;DHT22;24844;52.380;7.018;2023-08-24T15:35:40;26.20;99.90
39099;DHT22;24844;52.380;7.018;2023-08-24T15:38:06;26.50;99.90
39099;DHT22;24844;52.380;7.018;2023-08-24T15:40:33;26.40;99.90
39099;DHT22;24844;52.380;7.018;2023-08-24T15:42:58;26.30;99.90
39099;DHT22;24844;52.380;7.018;2023-08-24T15:45:24;26.20;99.90